createdAt,value
2023-04-11T00:02:16.135Z,87.18
2023-04-11T00:04:44.483Z,87.44
2023-04-11T00:07:12.403Z,87.55
2023-04-11T00:09:40.707Z,87.56
2023-04-11T00:12:08.660Z,87.53
2023-04-11T00:14:36.629Z,87.49
2023-04-11T00:17:06.127Z,87.39
2023-04-11T00:19:34.186Z,87.27
2023-04-11T00:22:02.900Z,87.13
2023-04-11T00:24:31.286Z,87.00
2023-04-11T00:26:59.710Z,86.94
2023-04-11T00:29:34.153Z,86.83
2023-04-11T00:32:02.253Z,86.75
2023-04-11T00:34:30.916Z,86.70
2023-04-11T00:36:59.233Z,86.62
2023-04-11T00:39:30.551Z,86.62
2023-04-11T00:42:08.358Z,86.62
2023-04-11T00:44:36.689Z,86.60
2023-04-11T00:47:07.655Z,86.59
2023-04-11T00:49:36.569Z,86.68
2023-04-11T00:52:05.158Z,86.87
2023-04-11T00:54:34.050Z,86.99
2023-04-11T00:57:04.233Z,87.06
2023-04-11T00:59:33.084Z,87.10
2023-04-11T01:02:02.083Z,87.10
2023-04-11T01:04:30.319Z,87.11
2023-04-11T01:07:06.384Z,87.11
2023-04-11T01:09:36.431Z,87.10
2023-04-11T01:12:06.512Z,87.12
2023-04-11T01:14:34.533Z,87.16
2023-04-11T01:17:02.949Z,87.20
2023-04-11T01:19:31.415Z,87.31
2023-04-11T01:22:01.850Z,87.46
2023-04-11T01:24:30.819Z,87.56
2023-04-11T01:26:58.852Z,87.64
2023-04-11T01:29:26.911Z,87.71
2023-04-11T01:31:54.807Z,87.82
2023-04-11T01:34:28.409Z,87.91
2023-04-11T01:36:56.638Z,87.97
2023-04-11T01:39:25.201Z,87.95
2023-04-11T01:41:56.979Z,87.89
2023-04-11T01:44:27.418Z,87.86
2023-04-11T01:46:56.289Z,87.88
2023-04-11T01:49:26.145Z,87.89
2023-04-11T01:51:54.332Z,87.86
2023-04-11T01:54:22.395Z,87.85
2023-04-11T01:56:50.374Z,87.80
2023-04-11T01:59:19.770Z,87.72
2023-04-11T02:01:48.114Z,87.75
2023-04-11T02:04:16.508Z,87.87
2023-04-11T02:06:44.519Z,87.95
2023-04-11T02:09:12.977Z,88.02
2023-04-11T02:11:41.092Z,88.07
2023-04-11T02:14:10.023Z,88.10
2023-04-11T02:16:55.216Z,88.09
2023-04-11T02:19:26.007Z,88.01
2023-04-11T02:21:54.200Z,87.91
2023-04-11T02:24:22.103Z,87.81
2023-04-11T02:26:50.087Z,87.69
2023-04-11T02:29:27.846Z,87.55
2023-04-11T02:32:02.448Z,87.40
2023-04-11T02:34:30.983Z,87.29
2023-04-11T02:36:59.337Z,87.19
2023-04-11T02:39:27.820Z,87.09
2023-04-11T02:41:57.417Z,86.98
2023-04-11T02:44:26.421Z,86.88
2023-04-11T02:46:56.264Z,86.81
2023-04-11T02:49:25.700Z,86.74
2023-04-11T02:51:54.211Z,86.67
2023-04-11T02:54:22.221Z,86.62
2023-04-11T02:56:51.009Z,86.61
2023-04-11T02:59:19.559Z,86.77
2023-04-11T03:01:47.830Z,87.01
2023-04-11T03:04:16.243Z,87.25
2023-04-11T03:06:55.530Z,87.50
2023-04-11T03:09:24.090Z,87.66
2023-04-11T03:11:52.191Z,87.87
2023-04-11T03:14:20.397Z,88.10
2023-04-11T03:16:48.556Z,88.35
2023-04-11T03:19:16.644Z,88.57
2023-04-11T03:21:44.917Z,88.76
2023-04-11T03:24:13.359Z,88.87
2023-04-11T03:26:42.130Z,88.95
2023-04-11T03:29:12.876Z,89.03
2023-04-11T03:31:59.822Z,89.13
2023-04-11T03:34:29.266Z,89.28
2023-04-11T03:36:58.804Z,89.44
2023-04-11T03:39:27.487Z,89.57
2023-04-11T03:41:58.576Z,89.70
2023-04-11T03:44:27.959Z,89.79
2023-04-11T03:46:56.809Z,89.86
2023-04-11T03:49:26.631Z,89.93
2023-04-11T03:51:56.716Z,89.96
2023-04-11T03:54:25.709Z,89.97
2023-04-11T03:56:53.770Z,89.97
2023-04-11T03:59:27.192Z,89.99
2023-04-11T04:02:50.420Z,90.02
2023-04-11T04:05:18.713Z,90.03
2023-04-11T04:07:46.909Z,90.06
2023-04-11T04:10:22.216Z,90.11
2023-04-11T04:12:53.826Z,90.14
2023-04-11T04:15:25.305Z,90.16
2023-04-11T04:17:54.867Z,90.15
2023-04-11T04:20:35.052Z,90.15
2023-04-11T04:23:04.719Z,90.17
2023-04-11T04:25:45.683Z,90.18
2023-04-11T04:28:17.077Z,90.14
2023-04-11T04:34:55.135Z,89.80
2023-04-11T04:37:39.523Z,88.43
2023-04-11T04:40:31.730Z,85.53
2023-04-11T04:43:09.502Z,82.97
2023-04-11T04:45:42.930Z,80.05
2023-04-11T04:48:13.773Z,75.44
2023-04-11T04:50:41.790Z,70.78
2023-04-11T04:53:09.919Z,65.50
2023-04-11T04:55:39.574Z,62.22
2023-04-11T04:58:08.269Z,60.69
2023-04-11T05:00:36.700Z,61.44
2023-04-11T05:03:08.776Z,62.09
2023-04-11T05:05:37.167Z,63.13
2023-04-11T05:08:05.891Z,63.74
2023-04-11T05:10:34.399Z,65.10
2023-04-11T05:13:02.346Z,66.07
2023-04-11T05:15:30.455Z,66.70
2023-04-11T05:17:58.512Z,67.43
2023-04-11T05:20:29.721Z,68.58
2023-04-11T05:22:59.440Z,68.98
2023-04-11T05:25:27.418Z,68.84
2023-04-11T05:27:56.367Z,69.45
2023-04-11T05:30:25.439Z,70.08
2023-04-11T05:32:53.462Z,70.08
2023-04-11T05:35:22.287Z,70.32
2023-04-11T05:37:53.102Z,70.23
2023-04-11T05:40:21.448Z,70.37
2023-04-11T05:42:51.078Z,71.30
2023-04-11T05:45:19.841Z,71.40
2023-04-11T05:47:47.819Z,71.54
2023-04-11T05:50:16.476Z,71.47
2023-04-11T05:52:44.407Z,71.41
2023-04-11T05:55:12.425Z,72.17
2023-04-11T05:57:40.602Z,72.48
2023-04-11T06:00:13.416Z,71.74
2023-04-11T06:02:42.949Z,71.93
2023-04-11T06:05:12.243Z,72.19
2023-04-11T06:07:41.390Z,72.14
2023-04-11T06:10:10.114Z,71.82
2023-04-11T06:12:38.088Z,72.44
2023-04-11T06:15:06.669Z,71.78
2023-04-11T06:17:34.874Z,71.79
2023-04-11T06:20:06.205Z,71.53
2023-04-11T06:22:34.643Z,71.10
2023-04-11T06:25:03.089Z,70.70
2023-04-11T06:27:31.322Z,70.36
2023-04-11T06:29:59.265Z,69.90
2023-04-11T06:32:27.481Z,70.16
2023-04-11T06:34:55.518Z,68.95
2023-04-11T06:37:23.907Z,68.89
2023-04-11T06:39:51.821Z,68.88
2023-04-11T06:42:19.929Z,69.18
2023-04-11T06:44:48.833Z,67.55
2023-04-11T06:47:17.053Z,66.43
2023-04-11T06:49:44.988Z,67.63
2023-04-11T06:52:13.086Z,67.27
2023-04-11T06:54:41.009Z,66.12
2023-04-11T06:57:10.606Z,66.10
2023-04-11T06:59:39.000Z,66.41
2023-04-11T07:02:07.929Z,67.08
2023-04-11T07:04:36.098Z,66.63
2023-04-11T07:07:04.609Z,66.24
2023-04-11T07:09:32.671Z,64.71
2023-04-11T07:12:01.589Z,65.84
2023-04-11T07:14:29.637Z,65.83
2023-04-11T07:16:58.891Z,65.60
2023-04-11T07:19:26.952Z,65.45
2023-04-11T07:21:55.274Z,65.75
2023-04-11T07:24:23.147Z,65.61
2023-04-11T07:26:52.032Z,65.60
2023-04-11T07:29:20.481Z,65.47
2023-04-11T07:31:49.668Z,64.41
2023-04-11T07:34:17.643Z,64.44
2023-04-11T07:37:01.041Z,65.00
2023-04-11T07:39:29.684Z,65.61
2023-04-11T07:41:57.971Z,64.56
2023-04-11T07:44:27.197Z,63.82
2023-04-11T07:46:55.733Z,63.67
2023-04-11T07:49:23.771Z,63.35
2023-04-11T07:51:51.783Z,63.98
2023-04-11T07:54:20.118Z,63.75
2023-04-11T07:56:48.144Z,64.42
2023-04-11T07:59:16.155Z,62.13
2023-04-11T08:01:44.232Z,60.62
2023-04-11T08:04:12.752Z,61.20
2023-04-11T08:06:40.863Z,60.21
2023-04-11T08:09:08.927Z,60.45
2023-04-11T08:11:37.098Z,59.83
2023-04-11T08:14:05.640Z,59.83
2023-04-11T08:16:35.688Z,59.64
2023-04-11T08:19:03.767Z,60.25
2023-04-11T08:21:32.702Z,60.08
2023-04-11T08:24:00.679Z,60.16
2023-04-11T08:26:28.747Z,60.24
2023-04-11T08:28:57.068Z,60.01
2023-04-11T08:31:25.243Z,59.74
2023-04-11T08:33:53.266Z,57.82
2023-04-11T08:36:21.258Z,58.05
2023-04-11T08:38:49.450Z,59.78
2023-04-11T08:41:17.381Z,59.29
2023-04-11T08:43:46.997Z,59.82
2023-04-11T08:46:14.974Z,59.86
2023-04-11T08:48:43.072Z,60.38
2023-04-11T08:51:12.757Z,59.42
2023-04-11T08:53:41.810Z,59.53
2023-04-11T08:56:16.437Z,60.03
2023-04-11T08:58:44.542Z,60.76
2023-04-11T09:01:32.691Z,59.43
2023-04-11T09:04:05.600Z,58.53
2023-04-11T09:06:34.362Z,58.26
2023-04-11T09:09:06.461Z,57.98
2023-04-11T09:11:56.091Z,57.04
2023-04-11T09:14:26.244Z,56.88
2023-04-11T09:17:02.930Z,56.64
2023-04-11T09:19:32.701Z,57.34
2023-04-11T09:22:04.870Z,56.29
2023-04-11T09:24:35.235Z,57.51
2023-04-11T09:27:19.580Z,56.66
2023-04-11T09:29:48.983Z,56.21
2023-04-11T09:32:34.326Z,57.67
2023-04-11T09:35:16.956Z,58.73
2023-04-11T09:37:46.843Z,58.35
2023-04-11T09:40:16.623Z,56.15
2023-04-11T09:42:46.191Z,54.24
2023-04-11T09:45:18.758Z,55.91
2023-04-11T09:47:48.645Z,54.78
2023-04-11T09:50:17.885Z,55.17
2023-04-11T09:52:47.019Z,54.41
2023-04-11T09:55:18.358Z,53.59
2023-04-11T09:57:54.228Z,52.74
2023-04-11T10:00:24.403Z,52.05
2023-04-11T10:02:53.698Z,52.42
2023-04-11T10:05:30.461Z,54.29
2023-04-11T10:08:21.144Z,52.75
2023-04-11T10:10:51.000Z,53.26
2023-04-11T10:13:40.288Z,52.73
2023-04-11T10:16:12.273Z,51.24
2023-04-11T10:19:09.421Z,52.83
2023-04-11T10:21:37.415Z,52.45
2023-04-11T10:24:17.424Z,51.97
2023-04-11T10:26:45.897Z,51.05
2023-04-11T10:29:38.774Z,50.97
2023-04-11T10:32:19.079Z,49.01
2023-04-11T10:34:50.058Z,49.11
2023-04-11T10:37:19.434Z,49.18
2023-04-11T10:39:53.428Z,49.46
2023-04-11T10:42:34.375Z,48.21
2023-04-11T10:45:24.780Z,49.21
2023-04-11T10:47:58.810Z,48.07
2023-04-11T10:50:26.859Z,45.89
2023-04-11T10:53:02.828Z,47.53
2023-04-11T10:55:42.536Z,49.31
2023-04-11T10:58:22.272Z,49.99
2023-04-11T11:04:40.160Z,48.66
2023-04-11T11:07:13.641Z,48.83
2023-04-11T11:09:41.551Z,49.25
2023-04-11T11:12:11.655Z,50.96
2023-04-11T11:14:41.823Z,51.39
2023-04-11T11:17:12.457Z,51.05
2023-04-11T11:19:47.672Z,50.11
2023-04-11T11:22:25.778Z,50.23
2023-04-11T11:24:54.233Z,48.92
2023-04-11T11:27:24.691Z,49.45
2023-04-11T11:29:53.314Z,49.73
2023-04-11T11:32:28.905Z,50.16
2023-04-11T11:34:58.438Z,49.19
2023-04-11T11:37:27.090Z,47.54
2023-04-11T11:39:55.435Z,47.72
2023-04-11T11:42:23.395Z,48.52
2023-04-11T11:44:51.309Z,47.73
2023-04-11T11:47:19.402Z,47.52
2023-04-11T11:49:51.782Z,47.06
2023-04-11T11:52:37.094Z,47.46
2023-04-11T11:55:18.988Z,47.88
2023-04-11T11:57:49.098Z,46.79
2023-04-11T12:00:28.043Z,47.84
2023-04-11T12:02:58.152Z,47.97
2023-04-11T12:05:33.011Z,46.75
2023-04-11T12:08:04.541Z,46.35
2023-04-11T12:10:38.865Z,47.45
2023-04-11T12:13:16.131Z,46.08
2023-04-11T12:15:49.368Z,45.82
2023-04-11T12:18:21.037Z,45.65
2023-04-11T12:20:50.062Z,46.51
2023-04-11T12:23:18.775Z,45.63
2023-04-11T12:25:47.334Z,45.33
2023-04-11T12:28:15.912Z,45.41
2023-04-11T12:30:43.894Z,45.93
2023-04-11T12:33:12.261Z,45.34
2023-04-11T12:35:40.448Z,45.27
2023-04-11T12:38:09.186Z,46.16
2023-04-11T12:40:37.947Z,46.47
2023-04-11T12:43:06.125Z,46.27
2023-04-11T12:45:34.339Z,45.79
2023-04-11T12:48:02.420Z,45.84
2023-04-11T12:50:30.738Z,47.15
2023-04-11T12:53:00.210Z,46.27
2023-04-11T12:55:29.017Z,45.39
2023-04-11T12:57:57.095Z,47.37
2023-04-11T13:00:25.904Z,47.64
2023-04-11T13:02:54.835Z,47.54
2023-04-11T13:05:23.446Z,47.68
2023-04-11T13:07:52.146Z,49.16
2023-04-11T13:10:20.386Z,48.90
2023-04-11T13:12:48.727Z,49.55
2023-04-11T13:15:17.594Z,49.16
2023-04-11T13:17:45.820Z,49.49
2023-04-11T13:20:14.467Z,48.92
2023-04-11T13:22:43.241Z,47.56
2023-04-11T13:25:12.351Z,47.99
2023-04-11T13:27:42.070Z,46.41
2023-04-11T13:30:11.229Z,45.92
2023-04-11T13:32:39.608Z,44.64
2023-04-11T13:35:08.301Z,46.15
2023-04-11T13:37:36.589Z,45.30
2023-04-11T13:40:08.345Z,46.02
2023-04-11T13:42:36.617Z,44.78
2023-04-11T13:45:05.058Z,44.08
2023-04-11T13:47:35.463Z,43.83
2023-04-11T13:50:07.319Z,43.96
2023-04-11T13:52:35.276Z,44.32
2023-04-11T13:55:04.075Z,43.76
2023-04-11T13:57:32.202Z,44.42
2023-04-11T14:00:00.389Z,43.65
2023-04-11T14:02:28.602Z,43.89
2023-04-11T14:05:16.636Z,43.30
2023-04-11T14:07:44.639Z,43.47
2023-04-11T14:10:12.624Z,43.66
2023-04-11T14:12:40.896Z,43.15
2023-04-11T14:15:09.600Z,43.86
2023-04-11T14:17:37.924Z,44.56
2023-04-11T14:20:07.201Z,44.47
2023-04-11T14:22:35.933Z,43.95
2023-04-11T14:25:05.605Z,43.33
2023-04-11T14:27:33.701Z,43.61
2023-04-11T14:30:01.999Z,43.40
2023-04-11T14:32:30.078Z,43.98
2023-04-11T14:35:00.033Z,44.25
2023-04-11T14:37:28.351Z,45.47
2023-04-11T14:39:56.532Z,45.24
2023-04-11T14:42:24.506Z,45.00
2023-04-11T14:44:53.547Z,45.69
2023-04-11T14:47:21.494Z,44.78
2023-04-11T14:49:49.578Z,45.17
2023-04-11T14:52:17.565Z,45.12
2023-04-11T14:54:45.566Z,45.10
2023-04-11T14:57:14.389Z,44.49
2023-04-11T14:59:45.608Z,44.77
2023-04-11T15:02:14.131Z,45.48
2023-04-11T15:04:42.295Z,45.51
2023-04-11T15:07:10.393Z,46.94
2023-04-11T15:09:38.610Z,46.86
2023-04-11T15:12:06.712Z,47.51
2023-04-11T15:14:35.474Z,46.52
2023-04-11T15:17:03.577Z,46.73
2023-04-11T15:19:31.633Z,47.06
2023-04-11T15:21:59.609Z,47.81
2023-04-11T15:24:27.877Z,47.89
2023-04-11T15:26:56.800Z,48.07
2023-04-11T15:29:25.595Z,48.37
2023-04-11T15:31:54.138Z,48.84
2023-04-11T15:34:23.444Z,48.41
2023-04-11T15:36:51.429Z,48.75
2023-04-11T15:39:19.600Z,49.14
2023-04-11T15:41:47.693Z,50.24
2023-04-11T15:44:16.101Z,49.03
2023-04-11T15:46:46.940Z,49.23
2023-04-11T15:49:16.932Z,48.95
2023-04-11T15:51:46.522Z,49.45
2023-04-11T15:54:14.582Z,49.21
2023-04-11T15:56:42.565Z,48.75
2023-04-11T15:59:13.467Z,49.57
2023-04-11T16:01:41.790Z,49.36
2023-04-11T16:04:11.419Z,49.00
2023-04-11T16:06:39.880Z,48.73
2023-04-11T16:09:08.830Z,49.01
2023-04-11T16:11:38.731Z,49.60
2023-04-11T16:14:07.030Z,50.01
2023-04-11T16:16:35.186Z,50.34
2023-04-11T16:19:03.561Z,51.06
2023-04-11T16:21:31.799Z,51.78
2023-04-11T16:24:00.032Z,52.11
2023-04-11T16:26:28.435Z,52.05
2023-04-11T16:28:56.672Z,52.58
2023-04-11T16:31:25.512Z,52.76
2023-04-11T16:33:55.172Z,53.39
2023-04-11T16:36:23.921Z,53.69
2023-04-11T16:38:52.113Z,53.85
2023-04-11T16:41:20.310Z,53.83
2023-04-11T16:43:48.338Z,53.93
2023-04-11T16:46:19.484Z,54.31
2023-04-11T16:48:47.608Z,54.71
2023-04-11T16:51:18.368Z,54.84
2023-04-11T16:53:47.557Z,54.95
2023-04-11T16:56:18.404Z,55.70
2023-04-11T16:58:47.806Z,55.59
2023-04-11T17:01:15.847Z,55.78
2023-04-11T17:03:45.005Z,55.98
2023-04-11T17:06:15.071Z,55.91
2023-04-11T17:08:44.476Z,56.08
2023-04-11T17:11:13.978Z,56.43
2023-04-11T17:13:45.260Z,56.82
2023-04-11T17:16:13.859Z,56.65
2023-04-11T17:18:42.627Z,56.90
2023-04-11T17:21:11.433Z,57.22
2023-04-11T17:23:43.302Z,57.60
2023-04-11T17:26:12.478Z,57.66
2023-04-11T17:28:41.141Z,57.91
2023-04-11T17:31:20.174Z,58.17
2023-04-11T17:33:48.191Z,58.47
2023-04-11T17:36:16.327Z,58.74
2023-04-11T17:38:45.410Z,59.02
2023-04-11T17:41:15.721Z,59.37
2023-04-11T17:43:44.256Z,59.56
2023-04-11T17:46:13.095Z,59.77
2023-04-11T17:48:42.241Z,59.95
2023-04-11T17:51:10.768Z,60.18
2023-04-11T17:53:39.348Z,60.41
2023-04-11T17:56:08.270Z,60.66
2023-04-11T17:58:37.245Z,61.01
2023-04-11T18:01:11.290Z,61.31
2023-04-11T18:03:40.261Z,61.59
2023-04-11T18:06:08.839Z,62.07
2023-04-11T18:11:12.264Z,62.59
2023-04-11T18:13:42.876Z,62.87
2023-04-11T18:16:11.618Z,63.08
2023-04-11T18:18:40.129Z,63.34
2023-04-11T18:21:09.030Z,63.57
2023-04-11T18:23:38.956Z,63.83
2023-04-11T18:26:07.296Z,64.04
2023-04-11T18:28:35.426Z,64.14
2023-04-11T18:31:04.086Z,64.27
2023-04-11T18:33:33.724Z,64.49
2023-04-11T18:36:02.492Z,64.75
2023-04-11T18:38:30.782Z,65.04
2023-04-11T18:41:02.570Z,65.30
2023-04-11T18:43:33.604Z,65.37
2023-04-11T18:46:26.871Z,65.56
2023-04-11T18:48:55.134Z,65.63
2023-04-11T18:51:23.614Z,66.02
2023-04-11T18:53:52.853Z,66.22
2023-04-11T18:56:21.073Z,66.43
2023-04-11T18:58:52.585Z,66.55
2023-04-11T19:04:36.492Z,66.65
2023-04-11T19:07:04.928Z,66.56
2023-04-11T19:09:33.883Z,66.48
2023-04-11T19:12:02.078Z,66.56
2023-04-11T19:14:30.305Z,67.18
2023-04-11T19:16:58.921Z,67.41
2023-04-11T19:19:28.468Z,67.58
2023-04-11T19:21:57.465Z,67.78
2023-04-11T19:24:25.709Z,68.04
2023-04-11T19:26:53.643Z,68.17
2023-04-11T19:29:21.842Z,67.98
2023-04-11T19:31:50.088Z,67.74
2023-04-11T19:34:18.128Z,68.29
2023-04-11T19:36:46.490Z,68.53
2023-04-11T19:39:14.800Z,68.46
2023-04-11T19:41:46.674Z,68.76
2023-04-11T19:44:14.841Z,69.47
2023-04-11T19:46:42.968Z,70.29
2023-04-11T19:49:11.317Z,70.95
2023-04-11T19:51:40.227Z,71.51
2023-04-11T19:54:08.543Z,72.06
2023-04-11T19:56:39.124Z,72.49
2023-04-11T19:59:07.060Z,72.69
2023-04-11T20:01:36.095Z,73.52
2023-04-11T20:04:04.878Z,74.21
2023-04-11T20:06:34.946Z,74.38
2023-04-11T20:09:04.358Z,74.77
2023-04-11T20:11:33.220Z,74.87
2023-04-11T20:14:01.388Z,75.20
2023-04-11T20:16:30.764Z,75.86
2023-04-11T20:18:59.946Z,75.77
2023-04-11T20:21:28.298Z,76.19
2023-04-11T20:23:56.711Z,77.46
2023-04-11T20:26:25.032Z,78.11
2023-04-11T20:28:53.176Z,78.62
2023-04-11T20:31:21.377Z,78.87
2023-04-11T20:33:49.621Z,78.83
2023-04-11T20:36:17.994Z,79.50
2023-04-11T20:38:46.221Z,80.17
2023-04-11T20:41:15.029Z,80.23
2023-04-11T20:43:43.043Z,80.58
2023-04-11T20:46:13.565Z,81.33
2023-04-11T20:48:42.902Z,81.42
2023-04-11T20:51:11.686Z,81.89
2023-04-11T20:53:39.957Z,82.13
2023-04-11T20:56:07.897Z,82.41
2023-04-11T20:58:35.975Z,82.55
2023-04-11T21:01:03.964Z,82.55
2023-04-11T21:03:37.403Z,82.53
2023-04-11T21:06:07.582Z,82.47
2023-04-11T21:08:37.535Z,82.33
2023-04-11T21:11:06.383Z,82.48
2023-04-11T21:13:34.376Z,82.42
2023-04-11T21:16:02.243Z,82.59
2023-04-11T21:18:30.467Z,82.64
2023-04-11T21:20:58.710Z,82.63
2023-04-11T21:23:27.021Z,82.66
2023-04-11T21:25:54.966Z,82.72
2023-04-11T21:28:22.926Z,82.75
2023-04-11T21:30:51.020Z,82.77
2023-04-11T21:33:18.997Z,82.87
2023-04-11T21:35:47.177Z,83.13
2023-04-11T21:38:15.664Z,83.28
2023-04-11T21:40:43.668Z,83.46
2023-04-11T21:43:13.329Z,83.81
2023-04-11T21:45:41.582Z,84.03
2023-04-11T21:48:09.815Z,84.11
2023-04-11T21:50:37.965Z,84.27
2023-04-11T21:53:06.050Z,84.34
2023-04-11T21:55:34.242Z,84.36
2023-04-11T21:58:02.359Z,84.22
2023-04-11T22:00:30.478Z,84.31
2023-04-11T22:02:58.622Z,84.43
2023-04-11T22:05:27.504Z,84.66
2023-04-11T22:08:12.772Z,84.73
2023-04-11T22:10:48.373Z,84.58
2023-04-11T22:13:19.119Z,84.92
2023-04-11T22:16:05.189Z,85.01
2023-04-11T22:18:38.295Z,85.20
2023-04-11T22:21:09.771Z,85.63
2023-04-11T22:23:38.331Z,85.84
2023-04-11T22:26:06.570Z,85.93
2023-04-11T22:28:34.518Z,85.94
2023-04-11T22:31:03.555Z,86.19
2023-04-11T22:33:31.941Z,86.33
2023-04-11T22:35:59.930Z,86.33
2023-04-11T22:38:28.137Z,86.43
2023-04-11T22:40:56.053Z,86.50
2023-04-11T22:43:24.201Z,86.63
2023-04-11T22:45:53.364Z,86.68
2023-04-11T22:48:21.479Z,86.77
2023-04-11T22:50:52.971Z,86.97
2023-04-11T22:53:22.188Z,87.14
2023-04-11T22:55:50.389Z,87.24
2023-04-11T22:58:18.448Z,87.33
2023-04-11T23:00:47.513Z,87.28
2023-04-11T23:03:16.423Z,87.29
2023-04-11T23:05:44.629Z,87.43
2023-04-11T23:08:12.977Z,87.34
2023-04-11T23:10:41.132Z,87.26
2023-04-11T23:13:09.433Z,87.28
2023-04-11T23:15:37.914Z,87.26
2023-04-11T23:18:06.015Z,87.30
2023-04-11T23:20:37.382Z,87.23
2023-04-11T23:23:05.845Z,87.18
2023-04-11T23:25:37.333Z,87.07
2023-04-11T23:28:05.493Z,86.93
2023-04-11T23:30:35.868Z,86.85
2023-04-11T23:33:06.068Z,86.71
2023-04-11T23:35:35.448Z,86.64
2023-04-11T23:38:04.048Z,86.60
2023-04-11T23:40:32.835Z,86.52
2023-04-11T23:43:02.253Z,86.39
2023-04-11T23:45:30.768Z,86.26
2023-04-11T23:47:58.847Z,86.13
2023-04-11T23:50:27.475Z,86.09
2023-04-11T23:52:55.517Z,86.06
2023-04-11T23:55:23.583Z,86.15
2023-04-11T23:57:51.602Z,86.16
